sensor_id;sensor_type;location;lat;lon;timestamp;pressure;altitude;pressure_sealevel;temperature;humidity
7662;BME280;30314;48.184;11.510;2022-11-20T00:01:04;95368.88;;;4.14;100.00
7662;BME280;30314;48.184;11.510;2022-11-20T00:03:32;95336.16;;;3.96;100.00
7662;BME280;30314;48.184;11.510;2022-11-20T00:06:00;95247.16;;;3.29;100.00
7662;BME280;30314;48.184;11.510;2022-11-20T00:08:28;95375.44;;;4.12;100.00
7662;BME280;30314;48.184;11.510;2022-11-20T00:10:56;95370.97;;;4.17;100.00
7662;BME280;30314;48.184;11.510;2022-11-20T00:13:25;95377.75;;;4.13;100.00
7662;BME280;30314;48.184;11.510;2022-11-20T00:15:57;95381.69;;;4.11;100.00
7662;BME280;30314;48.184;11.510;2022-11-20T00:18:24;95380.34;;;4.03;100.00
7662;BME280;30314;48.184;11.510;2022-11-20T00:20:52;95396.34;;;4.12;100.00
7662;BME280;30314;48.184;11.510;2022-11-20T00:23:20;95357.09;;;4.06;100.00
7662;BME280;30314;48.184;11.510;2022-11-20T00:25:48;95371.22;;;4.11;100.00
7662;BME280;30314;48.184;11.510;2022-11-20T00:28:16;95377.78;;;4.23;100.00
7662;BME280;30314;48.184;11.510;2022-11-20T00:30:45;95385.09;;;4.16;100.00
7662;BME280;30314;48.184;11.510;2022-11-20T00:33:12;95372.56;;;4.18;100.00
7662;BME280;30314;48.184;11.510;2022-11-20T00:35:40;95367.03;;;4.04;100.00
7662;BME280;30314;48.184;11.510;2022-11-20T00:38:08;95373.31;;;4.08;100.00
7662;BME280;30314;48.184;11.510;2022-11-20T00:40:36;95366.50;;;3.97;100.00
7662;BME280;30314;48.184;11.510;2022-11-20T00:43:03;95377.75;;;4.03;100.00
7662;BME280;30314;48.184;11.510;2022-11-20T00:45:31;95384.56;;;4.09;100.00
7662;BME280;30314;48.184;11.510;2022-11-20T00:48:00;95382.22;;;4.13;100.00
7662;BME280;30314;48.184;11.510;2022-11-20T00:50:28;95299.47;;;3.55;100.00
7662;BME280;30314;48.184;11.510;2022-11-20T00:52:55;95391.38;;;4.15;100.00
7662;BME280;30314;48.184;11.510;2022-11-20T00:55:23;95332.19;;;3.78;100.00
7662;BME280;30314;48.184;11.510;2022-11-20T00:57:51;95385.38;;;4.15;100.00
7662;BME280;30314;48.184;11.510;2022-11-20T01:00:19;95384.28;;;3.95;100.00
7662;BME280;30314;48.184;11.510;2022-11-20T01:02:46;95301.56;;;3.47;100.00
7662;BME280;30314;48.184;11.510;2022-11-20T01:05:15;95397.91;;;4.18;100.00
7662;BME280;30314;48.184;11.510;2022-11-20T01:07:43;95386.91;;;4.11;100.00
7662;BME280;30314;48.184;11.510;2022-11-20T01:10:11;95402.63;;;4.21;100.00
7662;BME280;30314;48.184;11.510;2022-11-20T01:12:39;95385.34;;;3.99;100.00
7662;BME280;30314;48.184;11.510;2022-11-20T01:15:07;95404.44;;;4.15;100.00
7662;BME280;30314;48.184;11.510;2022-11-20T01:17:35;95408.91;;;4.20;100.00
7662;BME280;30314;48.184;11.510;2022-11-20T01:20:03;95381.41;;;4.02;100.00
7662;BME280;30314;48.184;11.510;2022-11-20T01:22:33;95246.06;;;3.14;100.00
7662;BME280;30314;48.184;11.510;2022-11-20T01:25:00;95379.06;;;4.00;100.00
7662;BME280;30314;48.184;11.510;2022-11-20T01:27:28;95394.50;;;4.12;100.00
7662;BME280;30314;48.184;11.510;2022-11-20T01:29:56;95384.53;;;4.04;100.00
7662;BME280;30314;48.184;11.510;2022-11-20T01:32:27;95409.69;;;4.15;100.00
7662;BME280;30314;48.184;11.510;2022-11-20T01:34:54;95386.63;;;3.91;100.00
7662;BME280;30314;48.184;11.510;2022-11-20T01:37:22;95414.13;;;4.09;100.00
7662;BME280;30314;48.184;11.510;2022-11-20T01:39:51;95412.56;;;4.14;100.00
7662;BME280;30314;48.184;11.510;2022-11-20T01:42:19;95353.13;;;3.67;100.00
7662;BME280;30314;48.184;11.510;2022-11-20T01:48:05;95390.56;;;3.94;100.00
7662;BME280;30314;48.184;11.510;2022-11-20T01:50:33;95390.03;;;3.92;100.00
7662;BME280;30314;48.184;11.510;2022-11-20T01:53:03;95414.66;;;4.22;100.00
7662;BME280;30314;48.184;11.510;2022-11-20T01:55:36;95415.47;;;4.28;100.00
7662;BME280;30314;48.184;11.510;2022-11-20T01:58:07;95361.25;;;3.97;100.00
7662;BME280;30314;48.184;11.510;2022-11-20T02:00:35;95409.94;;;4.24;100.00
7662;BME280;30314;48.184;11.510;2022-11-20T02:03:05;95442.94;;;4.15;100.00
7662;BME280;30314;48.184;11.510;2022-11-20T02:05:37;95416.25;;;4.13;100.00
7662;BME280;30314;48.184;11.510;2022-11-20T02:08:06;95378.00;;;3.86;100.00
7662;BME280;30314;48.184;11.510;2022-11-20T02:10:35;95414.69;;;4.27;100.00
7662;BME280;30314;48.184;11.510;2022-11-20T02:13:03;95412.59;;;4.29;100.00
7662;BME280;30314;48.184;11.510;2022-11-20T02:15:49;95417.31;;;4.27;100.00
7662;BME280;30314;48.184;11.510;2022-11-20T02:18:19;95325.38;;;3.61;100.00
7662;BME280;30314;48.184;11.510;2022-11-20T02:20:49;95429.59;;;4.27;100.00
7662;BME280;30314;48.184;11.510;2022-11-20T02:23:22;95420.94;;;4.21;100.00
7662;BME280;30314;48.184;11.510;2022-11-20T02:25:53;95419.13;;;4.27;100.00
7662;BME280;30314;48.184;11.510;2022-11-20T02:28:21;95386.63;;;3.97;100.00
7662;BME280;30314;48.184;11.510;2022-11-20T02:30:49;95419.91;;;4.22;100.00
7662;BME280;30314;48.184;11.510;2022-11-20T02:33:17;95278.53;;;3.34;100.00
7662;BME280;30314;48.184;11.510;2022-11-20T02:35:46;95406.03;;;4.16;100.00
7662;BME280;30314;48.184;11.510;2022-11-20T02:38:15;95304.94;;;3.43;100.00
7662;BME280;30314;48.184;11.510;2022-11-20T02:40:42;95385.34;;;4.09;100.00
7662;BME280;30314;48.184;11.510;2022-11-20T02:43:12;95352.63;;;3.81;100.00
7662;BME280;30314;48.184;11.510;2022-11-20T02:45:39;95414.69;;;4.32;100.00
7662;BME280;30314;48.184;11.510;2022-11-20T02:48:07;95414.16;;;4.35;100.00
7662;BME280;30314;48.184;11.510;2022-11-20T02:50:37;95401.84;;;4.15;100.00
7662;BME280;30314;48.184;11.510;2022-11-20T02:53:05;95281.16;;;3.34;100.00
7662;BME280;30314;48.184;11.510;2022-11-20T02:55:33;95414.66;;;4.22;100.00
7662;BME280;30314;48.184;11.510;2022-11-20T02:58:01;95395.28;;;4.07;100.00
7662;BME280;30314;48.184;11.510;2022-11-20T03:00:30;95283.25;;;3.42;100.00
7662;BME280;30314;48.184;11.510;2022-11-20T03:02:58;95350.81;;;3.87;100.00
7662;BME280;30314;48.184;11.510;2022-11-20T03:05:26;95338.19;;;3.68;100.00
7662;BME280;30314;48.184;11.510;2022-11-20T03:07:53;95337.94;;;3.75;100.00
7662;BME280;30314;48.184;11.510;2022-11-20T03:10:21;95323.56;;;3.62;100.00
7662;BME280;30314;48.184;11.510;2022-11-20T03:12:52;95386.38;;;4.08;100.00
7662;BME280;30314;48.184;11.510;2022-11-20T03:15:20;95292.41;;;3.45;100.00
7662;BME280;30314;48.184;11.510;2022-11-20T03:17:53;95393.22;;;4.15;100.00
7662;BME280;30314;48.184;11.510;2022-11-20T03:20:21;95409.44;;;4.12;100.00
7662;BME280;30314;48.184;11.510;2022-11-20T03:22:49;95411.25;;;4.16;100.00
7662;BME280;30314;48.184;11.510;2022-11-20T03:25:17;95344.50;;;3.72;100.00
7662;BME280;30314;48.184;11.510;2022-11-20T03:27:45;95409.47;;;4.27;100.00
7662;BME280;30314;48.184;11.510;2022-11-20T03:30:13;95407.34;;;4.19;100.00
7662;BME280;30314;48.184;11.510;2022-11-20T03:32:41;95402.34;;;4.17;100.00
7662;BME280;30314;48.184;11.510;2022-11-20T03:35:10;95381.69;;;4.00;100.00
7662;BME280;30314;48.184;11.510;2022-11-20T03:37:38;95396.84;;;4.08;100.00
7662;BME280;30314;48.184;11.510;2022-11-20T03:40:06;95401.56;;;4.06;100.00
7662;BME280;30314;48.184;11.510;2022-11-20T03:42:34;95399.47;;;4.03;100.00
7662;BME280;30314;48.184;11.510;2022-11-20T03:45:15;95402.84;;;3.99;100.00
7662;BME280;30314;48.184;11.510;2022-11-20T03:47:43;95401.81;;;4.00;100.00
7662;BME280;30314;48.184;11.510;2022-11-20T03:50:13;95417.50;;;4.00;100.00
7662;BME280;30314;48.184;11.510;2022-11-20T03:52:41;95313.84;;;3.42;100.00
7662;BME280;30314;48.184;11.510;2022-11-20T03:55:09;95340.00;;;3.62;100.00
7662;BME280;30314;48.184;11.510;2022-11-20T03:57:37;95380.13;;;3.99;100.00
7662;BME280;30314;48.184;11.510;2022-11-20T04:00:06;95410.44;;;3.95;100.00
7662;BME280;30314;48.184;11.510;2022-11-20T04:02:33;95417.50;;;4.00;100.00
7662;BME280;30314;48.184;11.510;2022-11-20T04:05:01;95408.38;;;4.07;100.00
7662;BME280;30314;48.184;11.510;2022-11-20T04:07:30;95324.56;;;3.45;100.00
7662;BME280;30314;48.184;11.510;2022-11-20T04:09:58;95413.06;;;4.11;100.00
7662;BME280;30314;48.184;11.510;2022-11-20T04:12:26;95292.88;;;3.26;100.00
7662;BME280;30314;48.184;11.510;2022-11-20T04:14:53;95406.78;;;3.86;100.00
7662;BME280;30314;48.184;11.510;2022-11-20T04:17:21;95415.16;;;3.98;100.00
7662;BME280;30314;48.184;11.510;2022-11-20T04:19:49;95411.50;;;4.09;100.00
7662;BME280;30314;48.184;11.510;2022-11-20T04:22:16;95407.56;;;4.02;100.00
7662;BME280;30314;48.184;11.510;2022-11-20T04:24:46;95408.88;;;3.99;100.00
7662;BME280;30314;48.184;11.510;2022-11-20T04:27:13;95410.72;;;3.99;100.00
7662;BME280;30314;48.184;11.510;2022-11-20T04:29:41;95369.06;;;3.81;100.00
7662;BME280;30314;48.184;11.510;2022-11-20T04:32:09;95404.19;;;4.01;100.00
7662;BME280;30314;48.184;11.510;2022-11-20T04:34:37;95404.94;;;4.02;100.00
7662;BME280;30314;48.184;11.510;2022-11-20T04:37:04;95409.41;;;4.01;100.00
7662;BME280;30314;48.184;11.510;2022-11-20T04:39:32;95364.38;;;3.73;100.00
7662;BME280;30314;48.184;11.510;2022-11-20T04:42:01;95400.78;;;4.06;100.00
7662;BME280;30314;48.184;11.510;2022-11-20T04:44:46;95419.09;;;4.01;100.00
7662;BME280;30314;48.184;11.510;2022-11-20T04:47:14;95416.72;;;3.94;100.00
7662;BME280;30314;48.184;11.510;2022-11-20T04:49:42;95413.06;;;3.95;100.00
7662;BME280;30314;48.184;11.510;2022-11-20T04:52:09;95421.41;;;3.92;100.00
7662;BME280;30314;48.184;11.510;2022-11-20T04:54:37;95422.22;;;3.98;100.00
7662;BME280;30314;48.184;11.510;2022-11-20T04:57:06;95415.94;;;3.99;100.00
7662;BME280;30314;48.184;11.510;2022-11-20T04:59:40;95421.13;;;3.88;100.00
7662;BME280;30314;48.184;11.510;2022-11-20T05:02:08;95366.69;;;3.59;100.00
7662;BME280;30314;48.184;11.510;2022-11-20T05:04:35;95418.03;;;3.97;100.00
7662;BME280;30314;48.184;11.510;2022-11-20T05:07:03;95418.81;;;3.97;100.00
7662;BME280;30314;48.184;11.510;2022-11-20T05:09:31;95413.31;;;3.93;100.00
7662;BME280;30314;48.184;11.510;2022-11-20T05:11:59;95419.84;;;3.96;100.00
7662;BME280;30314;48.184;11.510;2022-11-20T05:14:28;95412.00;;;3.96;100.00
7662;BME280;30314;48.184;11.510;2022-11-20T05:16:55;95414.66;;;4.06;100.00
7662;BME280;30314;48.184;11.510;2022-11-20T05:19:23;95397.88;;;3.87;100.00
7662;BME280;30314;48.184;11.510;2022-11-20T05:21:51;95415.94;;;3.93;100.00
7662;BME280;30314;48.184;11.510;2022-11-20T05:24:19;95413.56;;;3.97;100.00
7662;BME280;30314;48.184;11.510;2022-11-20T05:26:46;95386.81;;;3.69;100.00
7662;BME280;30314;48.184;11.510;2022-11-20T05:29:14;95413.56;;;3.97;100.00
7662;BME280;30314;48.184;11.510;2022-11-20T05:31:43;95410.44;;;3.95;100.00
7662;BME280;30314;48.184;11.510;2022-11-20T05:34:11;95396.81;;;3.93;100.00
7662;BME280;30314;48.184;11.510;2022-11-20T05:36:38;95410.47;;;4.00;100.00
7662;BME280;30314;48.184;11.510;2022-11-20T05:39:06;95421.44;;;4.02;100.00
7662;BME280;30314;48.184;11.510;2022-11-20T05:41:34;95414.66;;;4.01;100.00
7662;BME280;30314;48.184;11.510;2022-11-20T05:44:02;95269.47;;;2.83;100.00
7662;BME280;30314;48.184;11.510;2022-11-20T05:46:30;95330.56;;;3.46;100.00
7662;BME280;30314;48.184;11.510;2022-11-20T05:48:59;95348.13;;;3.61;100.00
7662;BME280;30314;48.184;11.510;2022-11-20T05:51:27;95415.69;;;4.05;100.00
7662;BME280;30314;48.184;11.510;2022-11-20T05:53:56;95404.47;;;4.05;100.00
7662;BME280;30314;48.184;11.510;2022-11-20T05:56:24;95415.72;;;4.31;100.00
7662;BME280;30314;48.184;11.510;2022-11-20T05:58:52;95405.78;;;4.13;100.00
7662;BME280;30314;48.184;11.510;2022-11-20T06:01:21;95420.94;;;4.21;100.00
7662;BME280;30314;48.184;11.510;2022-11-20T06:03:50;95426.19;;;4.21;100.00
7662;BME280;30314;48.184;11.510;2022-11-20T06:06:19;95420.66;;;3.97;100.00
7662;BME280;30314;48.184;11.510;2022-11-20T06:08:48;95396.56;;;3.79;100.00
7662;BME280;30314;48.184;11.510;2022-11-20T06:11:16;95424.59;;;3.99;100.00
7662;BME280;30314;48.184;11.510;2022-11-20T06:13:44;95363.25;;;3.53;100.00
7662;BME280;30314;48.184;11.510;2022-11-20T06:16:14;95425.63;;;3.98;100.00
7662;BME280;30314;48.184;11.510;2022-11-20T06:18:43;95425.63;;;3.98;100.00
7662;BME280;30314;48.184;11.510;2022-11-20T06:21:13;95415.94;;;3.99;100.00
7662;BME280;30314;48.184;11.510;2022-11-20T06:23:43;95419.28;;;3.84;100.00
7662;BME280;30314;48.184;11.510;2022-11-20T06:26:13;95427.84;;;3.58;100.00
7662;BME280;30314;48.184;11.510;2022-11-20T06:28:41;95424.47;;;3.63;100.00
7662;BME280;30314;48.184;11.510;2022-11-20T06:31:10;95428.09;;;3.57;100.00
7662;BME280;30314;48.184;11.510;2022-11-20T06:33:38;95435.47;;;3.70;100.00
7662;BME280;30314;48.184;11.510;2022-11-20T06:36:07;95428.13;;;3.62;100.00
7662;BME280;30314;48.184;11.510;2022-11-20T06:38:36;95432.09;;;3.75;100.00
7662;BME280;30314;48.184;11.510;2022-11-20T06:41:06;95412.19;;;3.69;100.00
7662;BME280;30314;48.184;11.510;2022-11-20T06:43:34;95432.59;;;3.77;100.00
7662;BME280;30314;48.184;11.510;2022-11-20T06:46:01;95436.78;;;3.78;100.00
7662;BME280;30314;48.184;11.510;2022-11-20T06:48:29;95420.25;;;3.57;100.00
7662;BME280;30314;48.184;11.510;2022-11-20T06:50:59;95390.41;;;3.42;100.00
7662;BME280;30314;48.184;11.510;2022-11-20T06:53:26;95440.78;;;3.91;100.00
7662;BME280;30314;48.184;11.510;2022-11-20T06:55:55;95443.88;;;3.83;100.00
7662;BME280;30314;48.184;11.510;2022-11-20T06:58:26;95446.25;;;3.89;100.00
7662;BME280;30314;48.184;11.510;2022-11-20T07:00:58;95458.03;;;3.92;100.00
7662;BME280;30314;48.184;11.510;2022-11-20T07:03:26;95452.81;;;3.87;100.00
7662;BME280;30314;48.184;11.510;2022-11-20T07:05:54;95441.72;;;3.69;100.00
7662;BME280;30314;48.184;11.510;2022-11-20T07:08:23;95353.72;;;3.16;100.00
7662;BME280;30314;48.184;11.510;2022-11-20T07:10:51;95455.66;;;3.90;100.00
7662;BME280;30314;48.184;11.510;2022-11-20T07:13:20;95466.44;;;3.99;100.00
7662;BME280;30314;48.184;11.510;2022-11-20T07:15:49;95406.97;;;3.69;100.00
7662;BME280;30314;48.184;11.510;2022-11-20T07:18:16;95469.84;;;4.05;100.00
7662;BME280;30314;48.184;11.510;2022-11-20T07:20:44;95467.22;;;3.94;100.00
7662;BME280;30314;48.184;11.510;2022-11-20T07:23:12;95467.44;;;3.93;100.00
7662;BME280;30314;48.184;11.510;2022-11-20T07:25:39;95467.69;;;3.91;100.00
7662;BME280;30314;48.184;11.510;2022-11-20T07:28:07;95467.72;;;4.02;100.00
7662;BME280;30314;48.184;11.510;2022-11-20T07:30:37;95467.78;;;4.12;100.00
7662;BME280;30314;48.184;11.510;2022-11-20T07:33:06;95457.81;;;4.09;100.00
7662;BME280;30314;48.184;11.510;2022-11-20T07:35:34;95467.78;;;4.12;100.00
7662;BME280;30314;48.184;11.510;2022-11-20T07:38:02;95467.00;;;4.12;100.00
7662;BME280;30314;48.184;11.510;2022-11-20T07:40:29;95468.00;;;4.11;100.00
7662;BME280;30314;48.184;11.510;2022-11-20T07:42:57;95468.28;;;4.09;100.00
7662;BME280;30314;48.184;11.510;2022-11-20T07:45:25;95455.41;;;3.97;100.00
7662;BME280;30314;48.184;11.510;2022-11-20T07:47:52;95437.06;;;3.81;100.00
7662;BME280;30314;48.184;11.510;2022-11-20T07:50:21;95405.13;;;3.69;100.00
7662;BME280;30314;48.184;11.510;2022-11-20T07:52:49;95470.97;;;4.35;100.00
7662;BME280;30314;48.184;11.510;2022-11-20T07:55:17;95423.78;;;4.04;100.00
7662;BME280;30314;48.184;11.510;2022-11-20T07:57:45;95468.59;;;4.28;100.00
7662;BME280;30314;48.184;11.510;2022-11-20T08:00:13;95474.09;;;4.27;100.00
7662;BME280;30314;48.184;11.510;2022-11-20T08:02:41;95473.84;;;4.33;100.00
7662;BME280;30314;48.184;11.510;2022-11-20T08:05:10;95479.06;;;4.33;100.00
7662;BME280;30314;48.184;11.510;2022-11-20T08:07:39;95477.78;;;4.36;100.00
7662;BME280;30314;48.184;11.510;2022-11-20T08:10:09;95472.81;;;4.50;100.00
7662;BME280;30314;48.184;11.510;2022-11-20T08:12:43;95486.44;;;4.57;100.00
7662;BME280;30314;48.184;11.510;2022-11-20T08:15:29;95350.22;;;3.69;100.00
7662;BME280;30314;48.184;11.510;2022-11-20T08:18:02;95483.03;;;4.62;100.00
7662;BME280;30314;48.184;11.510;2022-11-20T08:20:50;95466.78;;;4.49;100.00
7662;BME280;30314;48.184;11.510;2022-11-20T08:23:19;95488.53;;;4.55;100.00
7662;BME280;30314;48.184;11.510;2022-11-20T08:25:49;95453.69;;;4.39;100.00
7662;BME280;30314;48.184;11.510;2022-11-20T08:28:17;95479.63;;;4.56;100.00
7662;BME280;30314;48.184;11.510;2022-11-20T08:30:48;95490.63;;;4.58;100.00
7662;BME280;30314;48.184;11.510;2022-11-20T08:33:16;95486.97;;;4.64;100.00
7662;BME280;30314;48.184;11.510;2022-11-20T08:35:45;95485.66;;;4.67;100.00
7662;BME280;30314;48.184;11.510;2022-11-20T08:38:13;95484.09;;;4.61;100.00
7662;BME280;30314;48.184;11.510;2022-11-20T08:40:42;95480.69;;;4.60;100.00
7662;BME280;30314;48.184;11.510;2022-11-20T08:43:30;95486.72;;;4.71;100.00
7662;BME280;30314;48.184;11.510;2022-11-20T08:45:58;95435.38;;;4.34;100.00
7662;BME280;30314;48.184;11.510;2022-11-20T08:48:25;95470.47;;;4.74;100.00
7662;BME280;30314;48.184;11.510;2022-11-20T08:50:53;95408.69;;;4.32;100.00
7662;BME280;30314;48.184;11.510;2022-11-20T08:53:24;95482.78;;;4.84;100.00
7662;BME280;30314;48.184;11.510;2022-11-20T08:55:54;95491.94;;;4.92;100.00
7662;BME280;30314;48.184;11.510;2022-11-20T08:58:23;95485.41;;;4.89;100.00
7662;BME280;30314;48.184;11.510;2022-11-20T09:00:51;95490.13;;;4.92;100.00
7662;BME280;30314;48.184;11.510;2022-11-20T09:03:19;95489.59;;;4.90;100.00
7662;BME280;30314;48.184;11.510;2022-11-20T09:05:47;95492.22;;;4.96;100.00
7662;BME280;30314;48.184;11.510;2022-11-20T09:08:15;95486.19;;;4.90;100.00
7662;BME280;30314;48.184;11.510;2022-11-20T09:10:43;95408.91;;;4.35;100.00
7662;BME280;30314;48.184;11.510;2022-11-20T09:13:12;95484.34;;;4.90;100.00
7662;BME280;30314;48.184;11.510;2022-11-20T09:15:39;95483.28;;;5.02;100.00
7662;BME280;30314;48.184;11.510;2022-11-20T09:18:07;95486.97;;;5.11;100.00
7662;BME280;30314;48.184;11.510;2022-11-20T09:20:35;95482.25;;;5.13;100.00
7662;BME280;30314;48.184;11.510;2022-11-20T09:23:03;95478.56;;;5.14;100.00
7662;BME280;30314;48.184;11.510;2022-11-20T09:25:31;95480.66;;;5.12;100.00
7662;BME280;30314;48.184;11.510;2022-11-20T09:27:58;95478.84;;;5.13;100.00
7662;BME280;30314;48.184;11.510;2022-11-20T09:30:28;95477.50;;;5.15;100.00
7662;BME280;30314;48.184;11.510;2022-11-20T09:32:57;95477.25;;;5.17;100.00
7662;BME280;30314;48.184;11.510;2022-11-20T09:35:25;95471.75;;;5.24;100.00
7662;BME280;30314;48.184;11.510;2022-11-20T09:37:52;95475.97;;;5.19;100.00
7662;BME280;30314;48.184;11.510;2022-11-20T09:40:21;95450.53;;;5.15;100.00
7662;BME280;30314;48.184;11.510;2022-11-20T09:42:55;95465.72;;;5.28;100.00
7662;BME280;30314;48.184;11.510;2022-11-20T09:45:38;95469.38;;;5.32;100.00
7662;BME280;30314;48.184;11.510;2022-11-20T09:51:14;95461.50;;;5.43;100.00
7662;BME280;30314;48.184;11.510;2022-11-20T09:53:54;95442.63;;;5.35;100.00
7662;BME280;30314;48.184;11.510;2022-11-20T09:56:23;95423.22;;;5.36;100.00
7662;BME280;30314;48.184;11.510;2022-11-20T09:58:52;95448.59;;;5.62;100.00
7662;BME280;30314;48.184;11.510;2022-11-20T10:01:26;95454.56;;;5.78;100.00
7662;BME280;30314;48.184;11.510;2022-11-20T10:03:57;95448.44;;;5.98;100.00
7662;BME280;30314;48.184;11.510;2022-11-20T10:06:30;95455.25;;;5.99;100.00
7662;BME280;30314;48.184;11.510;2022-11-20T10:09:16;95454.41;;;6.14;100.00
7662;BME280;30314;48.184;11.510;2022-11-20T10:11:49;95452.53;;;6.20;100.00
7662;BME280;30314;48.184;11.510;2022-11-20T10:14:27;95444.19;;;6.13;100.00
7662;BME280;30314;48.184;11.510;2022-11-20T10:17:03;95386.06;;;5.79;100.00
7662;BME280;30314;48.184;11.510;2022-11-20T10:19:44;95448.84;;;6.26;100.00
7662;BME280;30314;48.184;11.510;2022-11-20T10:22:25;95449.34;;;6.23;100.00
7662;BME280;30314;48.184;11.510;2022-11-20T10:25:01;95449.91;;;6.20;100.00
7662;BME280;30314;48.184;11.510;2022-11-20T10:27:52;95445.97;;;6.23;100.00
7662;BME280;30314;48.184;11.510;2022-11-20T10:30:22;95453.78;;;6.28;100.00
7662;BME280;30314;48.184;11.510;2022-11-20T10:32:55;95453.03;;;6.27;100.00
7662;BME280;30314;48.184;11.510;2022-11-20T10:35:28;95444.59;;;6.30;100.00
7662;BME280;30314;48.184;11.510;2022-11-20T10:38:02;95452.22;;;6.27;100.00
7662;BME280;30314;48.184;11.510;2022-11-20T10:40:35;95454.59;;;6.28;100.00
7662;BME280;30314;48.184;11.510;2022-11-20T10:43:10;95456.13;;;6.34;100.00
7662;BME280;30314;48.184;11.510;2022-11-20T10:45:46;95377.78;;;5.62;100.00
7662;BME280;30314;48.184;11.510;2022-11-20T10:48:20;95409.50;;;6.16;100.00
7662;BME280;30314;48.184;11.510;2022-11-20T10:51:03;95440.34;;;6.40;98.48
7662;BME280;30314;48.184;11.510;2022-11-20T10:53:54;95445.09;;;6.32;100.00
7662;BME280;30314;48.184;11.510;2022-11-20T10:56:30;95448.84;;;6.26;100.00
7662;BME280;30314;48.184;11.510;2022-11-20T10:59:08;95417.13;;;6.17;100.00
7662;BME280;30314;48.184;11.510;2022-11-20T11:01:40;95441.97;;;6.30;100.00
7662;BME280;30314;48.184;11.510;2022-11-20T11:04:35;95434.91;;;6.31;100.00
7662;BME280;30314;48.184;11.510;2022-11-20T11:07:10;95440.97;;;6.26;100.00
7662;BME280;30314;48.184;11.510;2022-11-20T11:09:41;95434.41;;;6.24;100.00
7662;BME280;30314;48.184;11.510;2022-11-20T11:12:10;95427.44;;;6.43;100.00
7662;BME280;30314;48.184;11.510;2022-11-20T11:14:43;95431.22;;;6.67;100.00
7662;BME280;30314;48.184;11.510;2022-11-20T11:17:24;95427.34;;;6.59;100.00
7662;BME280;30314;48.184;11.510;2022-11-20T11:20:00;95420.28;;;6.54;100.00
7662;BME280;30314;48.184;11.510;2022-11-20T11:22:29;95354.97;;;6.07;100.00
7662;BME280;30314;48.184;11.510;2022-11-20T11:24:57;95419.16;;;6.60;100.00
7662;BME280;30314;48.184;11.510;2022-11-20T11:27:25;95417.59;;;6.59;100.00
7662;BME280;30314;48.184;11.510;2022-11-20T11:30:03;95404.78;;;6.58;99.23
7662;BME280;30314;48.184;11.510;2022-11-20T11:32:38;95411.78;;;6.97;100.00
7662;BME280;30314;48.184;11.510;2022-11-20T11:35:20;95416.34;;;6.86;100.00
7662;BME280;30314;48.184;11.510;2022-11-20T11:37:48;95416.22;;;6.67;100.00
7662;BME280;30314;48.184;11.510;2022-11-20T11:40:18;95413.22;;;6.49;100.00
7662;BME280;30314;48.184;11.510;2022-11-20T11:42:54;95417.22;;;6.42;100.00
7662;BME280;30314;48.184;11.510;2022-11-20T11:45:22;95405.72;;;6.32;100.00
7662;BME280;30314;48.184;11.510;2022-11-20T11:47:50;95407.59;;;6.27;100.00
7662;BME280;30314;48.184;11.510;2022-11-20T11:50:22;95398.25;;;6.10;100.00
7662;BME280;30314;48.184;11.510;2022-11-20T11:52:57;95362.00;;;5.72;100.00
7662;BME280;30314;48.184;11.510;2022-11-20T11:55:31;95422.13;;;6.14;100.00
7662;BME280;30314;48.184;11.510;2022-11-20T11:58:11;95408.97;;;6.19;100.00
7662;BME280;30314;48.184;11.510;2022-11-20T12:00:50;95386.47;;;6.07;100.00
7662;BME280;30314;48.184;11.510;2022-11-20T12:03:24;95423.69;;;6.15;100.00
7662;BME280;30314;48.184;11.510;2022-11-20T12:05:58;95424.31;;;6.01;100.00
7662;BME280;30314;48.184;11.510;2022-11-20T12:08:31;95416.53;;;5.70;100.00
7662;BME280;30314;48.184;11.510;2022-11-20T12:11:03;95420.50;;;5.68;100.00
7662;BME280;30314;48.184;11.510;2022-11-20T12:13:46;95405.13;;;5.40;100.00
7662;BME280;30314;48.184;11.510;2022-11-20T12:16:19;95404.06;;;5.41;100.00
7662;BME280;30314;48.184;11.510;2022-11-20T12:18:50;95412.88;;;5.66;100.00
7662;BME280;30314;48.184;11.510;2022-11-20T12:21:24;95406.91;;;5.50;100.00
7662;BME280;30314;48.184;11.510;2022-11-20T12:24:27;95410.03;;;5.57;100.00
7662;BME280;30314;48.184;11.510;2022-11-20T12:27:09;95407.69;;;5.56;100.00
7662;BME280;30314;48.184;11.510;2022-11-20T12:29:47;95395.09;;;5.53;100.00
7662;BME280;30314;48.184;11.510;2022-11-20T12:32:36;95418.88;;;5.77;100.00
7662;BME280;30314;48.184;11.510;2022-11-20T12:35:19;95409.22;;;5.67;100.00
7662;BME280;30314;48.184;11.510;2022-11-20T12:38:06;95399.22;;;5.74;100.00
7662;BME280;30314;48.184;11.510;2022-11-20T12:40:44;95406.81;;;5.76;100.00
7662;BME280;30314;48.184;11.510;2022-11-20T12:43:18;95398.41;;;5.79;100.00
7662;BME280;30314;48.184;11.510;2022-11-20T12:46:13;95408.06;;;5.84;100.00
7662;BME280;30314;48.184;11.510;2022-11-20T12:49:18;95405.22;;;5.80;100.00
7662;BME280;30314;48.184;11.510;2022-11-20T12:52:01;95406.81;;;5.76;100.00
7662;BME280;30314;48.184;11.510;2022-11-20T12:55:11;95399.22;;;5.74;100.00
7662;BME280;30314;48.184;11.510;2022-11-20T12:57:46;95406.59;;;5.72;100.00
7662;BME280;30314;48.184;11.510;2022-11-20T13:00:18;95395.03;;;5.73;100.00
7662;BME280;30314;48.184;11.510;2022-11-20T13:03:24;95403.97;;;5.67;100.00
7662;BME280;30314;48.184;11.510;2022-11-20T13:05:59;95407.16;;;5.59;100.00
7662;BME280;30314;48.184;11.510;2022-11-20T13:08:33;95399.03;;;5.50;100.00
7662;BME280;30314;48.184;11.510;2022-11-20T13:11:09;95390.88;;;5.57;100.00
7662;BME280;30314;48.184;11.510;2022-11-20T13:13:44;95394.84;;;5.54;100.00
7662;BME280;30314;48.184;11.510;2022-11-20T13:16:16;95392.22;;;5.49;100.00
7662;BME280;30314;48.184;11.510;2022-11-20T13:18:47;95373.66;;;5.40;100.00
7662;BME280;30314;48.184;11.510;2022-11-20T13:21:17;95303.91;;;4.73;100.00
7662;BME280;30314;48.184;11.510;2022-11-20T13:23:45;95377.09;;;5.30;100.00
7662;BME280;30314;48.184;11.510;2022-11-20T13:26:20;95382.88;;;5.22;100.00